Time;durP1;ratioP1;P1;durP2;ratioP2;P2;SDS_P1;SDS_P2;PMS_P1;PMS_P2;Temp;Humidity;BMP_temperature;BMP_pressure;BME280_temperature;BME280_humidity;BME280_pressure;Samples;Min_cycle;Max_cycle;Signal;HPM_P1;HPM_P2
2021/01/12 00:01:51;;;;;;;24.90;12.20;;;;;;;-4.09;83.66;98643.05;249563;1148;23035;-75
2021/01/12 00:06:53;;;;;;;26.97;11.10;;;;;;;-4.09;83.29;98629.96;249495;1148;22967;-74
2021/01/12 00:11:55;;;;;;;26.10;11.30;;;;;;;-4.09;83.43;98611.64;249723;1148;22970;-72
2021/01/12 00:17:06;;;;;;;24.77;11.57;;;;;;;-4.10;83.29;98608.20;249701;1147;22948;-75
2021/01/12 00:22:16;;;;;;;25.63;11.23;;;;;;;-4.10;83.55;98602.97;249737;1148;24602;-74
2021/01/12 00:27:21;;;;;;;24.18;10.13;;;;;;;-4.08;83.70;98608.83;249593;1148;22961;-75
2021/01/12 00:32:25;;;;;;;22.83;10.60;;;;;;;-4.06;83.67;98603.40;249657;1148;23338;-72
2021/01/12 00:37:27;;;;;;;22.90;11.70;;;;;;;-4.07;83.74;98594.75;249743;1148;23065;-74
2021/01/12 00:42:30;;;;;;;24.37;10.80;;;;;;;-4.06;83.74;98598.95;249558;1148;22984;-72
2021/01/12 00:47:32;;;;;;;21.25;10.60;;;;;;;-4.08;83.61;98593.13;249513;1148;23399;-72
2021/01/12 00:52:35;;;;;;;19.80;10.13;;;;;;;-4.06;83.51;98601.58;249853;1147;22948;-73
2021/01/12 00:57:39;;;;;;;25.13;11.50;;;;;;;-4.06;83.96;98596.34;249700;1148;23047;-72
2021/01/12 01:02:41;;;;;;;26.55;13.25;;;;;;;-4.07;83.66;98584.28;249792;1148;23006;-71
2021/01/12 01:07:46;;;;;;;25.03;10.80;;;;;;;-4.06;84.00;98572.80;249556;1148;22955;-72
2021/01/12 01:12:49;;;;;;;23.87;12.60;;;;;;;-4.04;83.56;98562.95;249768;1148;22948;-76
2021/01/12 01:17:50;;;;;;;22.47;10.90;;;;;;;-4.05;83.47;98566.56;249647;1148;23101;-74
2021/01/12 01:22:52;;;;;;;24.75;10.45;;;;;;;-4.05;83.89;98556.09;249626;1148;22966;-74
2021/01/12 01:27:55;;;;;;;19.43;8.73;;;;;;;-4.04;83.75;98551.66;249580;1148;22980;-74
2021/01/12 01:32:58;;;;;;;22.57;12.03;;;;;;;-4.05;83.88;98537.78;249523;1148;23036;-75
2021/01/12 01:38:00;;;;;;;25.43;11.47;;;;;;;-4.06;83.80;98540.60;249793;1148;23004;-75
2021/01/12 01:43:03;;;;;;;21.77;10.10;;;;;;;-4.06;83.80;98527.52;249713;1148;22952;-75
2021/01/12 01:48:06;;;;;;;22.30;10.67;;;;;;;-4.07;83.54;98526.72;249625;1148;22975;-74
2021/01/12 01:53:12;;;;;;;22.53;11.50;;;;;;;-4.08;83.36;98527.72;249836;1148;23122;-74
2021/01/12 01:58:14;;;;;;;19.30;10.03;;;;;;;-4.09;83.75;98523.48;249583;1148;23033;-73
2021/01/12 02:03:24;;;;;;;21.10;10.30;;;;;;;-4.06;83.46;98517.05;249545;1148;23044;-75
2021/01/12 02:08:36;;;;;;;18.70;8.00;;;;;;;-4.07;83.33;98508.41;249623;1148;22980;-75
2021/01/12 02:13:41;;;;;;;24.13;10.43;;;;;;;-4.05;83.12;98510.82;249768;1148;23005;-75
2021/01/12 02:18:44;;;;;;;19.15;9.55;;;;;;;-4.07;82.91;98497.12;249605;1148;22979;-72
2021/01/12 02:23:49;;;;;;;21.13;10.33;;;;;;;-4.06;83.27;98467.34;249757;1148;23058;-74
2021/01/12 02:28:53;;;;;;;20.17;9.80;;;;;;;-4.07;83.13;98466.55;249867;1148;22976;-74
2021/01/12 02:33:58;;;;;;;17.07;7.63;;;;;;;-4.09;82.71;98459.89;249610;1148;22992;-74
2021/01/12 02:39:02;;;;;;;17.60;8.80;;;;;;;-4.09;82.47;98452.84;249621;1148;22945;-74
2021/01/12 02:44:05;;;;;;;17.35;8.90;;;;;;;-4.11;82.48;98441.78;249952;1148;22975;-74
2021/01/12 02:49:08;;;;;;;13.50;7.07;;;;;;;-4.13;82.50;98433.31;249797;1148;22959;-74
2021/01/12 02:54:10;;;;;;;16.50;7.77;;;;;;;-4.15;82.31;98423.05;249522;1148;22978;-72
2021/01/12 02:59:12;;;;;;;16.70;8.97;;;;;;;-4.16;82.45;98402.33;249573;1148;22973;-74
2021/01/12 03:04:14;;;;;;;16.77;6.83;;;;;;;-4.15;82.24;98403.95;249567;1148;22919;-74
2021/01/12 03:09:16;;;;;;;19.43;8.87;;;;;;;-4.17;82.34;98380.61;249429;1148;22951;-71
2021/01/12 03:14:18;;;;;;;16.63;7.70;;;;;;;-4.16;81.61;98365.71;249824;1148;23190;-72
2021/01/12 03:19:20;;;;;;;16.05;8.80;;;;;;;-4.16;81.55;98360.48;249540;1148;22941;-74
2021/01/12 03:24:23;;;;;;;15.77;7.80;;;;;;;-4.15;81.31;98356.86;249575;1148;23184;-74
2021/01/12 03:29:25;;;;;;;17.33;8.37;;;;;;;-4.13;81.43;98353.04;249661;1148;22949;-75
2021/01/12 03:34:27;;;;;;;15.90;7.40;;;;;;;-4.13;80.99;98344.37;249782;1148;22966;-72
2021/01/12 03:39:30;;;;;;;16.30;7.60;;;;;;;-4.17;81.09;98330.91;249668;1148;23020;-72
2021/01/12 03:44:32;;;;;;;14.27;6.53;;;;;;;-4.15;80.82;98333.31;249590;1148;22991;-74
2021/01/12 03:49:34;;;;;;;15.00;7.37;;;;;;;-4.16;81.43;98348.19;249517;1148;22952;-74
2021/01/12 03:54:36;;;;;;;13.10;6.85;;;;;;;-4.14;80.84;98329.67;249739;1148;22944;-75
2021/01/12 03:59:38;;;;;;;16.63;7.53;;;;;;;-4.16;80.73;98314.19;249637;1148;22971;-74
2021/01/12 04:04:41;;;;;;;17.80;8.97;;;;;;;-4.20;80.67;98310.36;249554;1148;23438;-75
2021/01/12 04:09:43;;;;;;;13.57;5.57;;;;;;;-4.19;80.56;98314.59;249720;1148;26040;-74
2021/01/12 04:14:45;;;;;;;16.43;7.33;;;;;;;-4.18;80.71;98310.98;249870;1148;23080;-72
2021/01/12 04:19:48;;;;;;;15.50;7.35;;;;;;;-4.18;80.38;98287.44;249689;1148;22956;-72
2021/01/12 04:24:50;;;;;;;18.57;8.47;;;;;;;-4.18;80.77;98281.41;249801;1147;22949;-71
2021/01/12 04:29:52;;;;;;;19.83;8.20;;;;;;;-4.19;80.46;98277.19;249791;1148;22967;-72
2021/01/12 04:34:54;;;;;;;16.43;8.07;;;;;;;-4.19;80.34;98269.34;249638;1148;22971;-74
2021/01/12 04:39:56;;;;;;;15.13;6.37;;;;;;;-4.17;80.52;98272.53;249598;1148;22955;-72
2021/01/12 04:45:04;;;;;;;18.50;9.30;;;;;;;-4.15;80.76;98263.48;249618;1148;23402;-74
2021/01/12 04:50:06;;;;;;;14.20;6.93;;;;;;;-4.17;80.45;98244.59;249819;1148;26082;-71
2021/01/12 04:55:09;;;;;;;17.60;7.60;;;;;;;-4.17;80.29;98244.59;249714;1148;22948;-74
2021/01/12 05:00:25;;;;;;;14.80;6.80;;;;;;;-4.16;80.04;98240.14;249738;1148;23046;-72
2021/01/12 05:05:36;;;;;;;15.87;7.87;;;;;;;-4.13;80.00;98250.19;249793;1148;23074;-72
2021/01/12 05:10:43;;;;;;;14.85;7.10;;;;;;;-4.13;80.04;98250.19;249582;1148;22947;-74
2021/01/12 05:15:47;;;;;;;16.63;7.37;;;;;;;-4.11;80.10;98237.72;250061;1148;22961;-73
2021/01/12 05:20:55;;;;;;;17.65;7.05;;;;;;;-4.09;79.76;98229.66;249767;1148;22974;-74
2021/01/12 05:26:00;;;;;;;17.03;7.57;;;;;;;-4.06;79.78;98224.02;249720;1148;22933;-75
2021/01/12 05:31:10;;;;;;;14.03;7.67;;;;;;;-4.07;79.74;98223.22;249622;1148;22970;-72
2021/01/12 05:36:12;;;;;;;16.90;7.83;;;;;;;-4.05;79.34;98218.57;249615;1148;22971;-74
2021/01/12 05:41:15;;;;;;;17.67;7.50;;;;;;;-4.04;79.20;98212.34;249685;1147;22967;-72
2021/01/12 05:46:18;;;;;;;16.50;7.43;;;;;;;-4.02;78.79;98202.45;249617;1148;22965;-74
2021/01/12 05:51:25;;;;;;;18.30;8.20;;;;;;;-4.03;78.26;98190.41;249998;1147;23112;-75
2021/01/12 05:56:29;;;;;;;17.30;7.25;;;;;;;-4.01;78.07;98192.80;249895;1148;23060;-72
2021/01/12 06:01:44;;;;;;;15.83;7.40;;;;;;;-4.03;78.42;98186.97;250142;1148;22943;-74
2021/01/12 06:06:49;;;;;;;11.43;4.73;;;;;;;-3.96;77.33;98183.32;249732;1148;23080;-72
2021/01/12 06:11:53;;;;;;;17.10;7.43;;;;;;;-3.88;77.48;98178.85;249496;1148;23397;-74
2021/01/12 06:16:56;;;;;;;10.35;5.45;;;;;;;-3.83;76.82;98168.56;249744;1148;22969;-72
2021/01/12 06:22:23;;;;;;;11.10;6.20;;;;;;;-3.79;76.63;98162.70;249778;1148;26863;-74
2021/01/12 06:27:31;;;;;;;13.55;6.45;;;;;;;-3.71;76.66;98164.25;249733;1148;23052;-74
2021/01/12 06:32:35;;;;;;;10.90;5.23;;;;;;;-3.66;75.80;98148.72;249649;1148;23001;-74
2021/01/12 06:37:40;;;;;;;14.60;5.83;;;;;;;-3.59;76.04;98155.74;249713;1148;23446;-72
2021/01/12 06:42:42;;;;;;;17.87;7.23;;;;;;;-3.53;76.18;98152.27;250055;1148;22945;-73
2021/01/12 06:47:44;;;;;;;11.53;6.67;;;;;;;-3.45;75.85;98146.77;249848;1148;24445;-72
2021/01/12 06:52:49;;;;;;;12.53;6.33;;;;;;;-3.32;75.29;98141.42;250103;1148;22969;-74
2021/01/12 06:57:54;;;;;;;17.30;7.80;;;;;;;-3.19;76.03;98137.09;250214;1147;26520;-72
2021/01/12 07:02:58;;;;;;;15.77;7.23;;;;;;;-3.06;74.63;98133.55;250341;1148;26082;-75
2021/01/12 07:08:07;;;;;;;16.23;8.07;;;;;;;-2.99;74.82;98103.66;250229;1148;23050;-74
2021/01/12 07:13:09;;;;;;;12.60;6.55;;;;;;;-2.90;74.27;98112.03;249995;1148;22973;-72
2021/01/12 07:18:11;;;;;;;15.60;8.03;;;;;;;-2.84;73.21;98100.69;250438;1148;22914;-74
2021/01/12 07:23:14;;;;;;;15.53;7.13;;;;;;;-2.79;73.09;98087.72;250416;1148;22940;-74
2021/01/12 07:28:23;;;;;;;16.50;7.70;;;;;;;-2.73;72.07;98083.41;250321;1147;22973;-74
2021/01/12 07:33:28;;;;;;;18.95;8.05;;;;;;;-2.61;73.23;98080.87;250308;1147;24400;-72
2021/01/12 07:38:30;;;;;;;16.07;8.07;;;;;;;-2.52;73.33;98073.50;250255;1147;23641;-75
2021/01/12 07:43:33;;;;;;;13.85;8.25;;;;;;;-2.47;73.35;98065.78;250042;1147;22900;-72
2021/01/12 07:48:36;;;;;;;18.53;7.77;;;;;;;-2.43;72.54;98065.11;250120;1148;23000;-74
2021/01/12 07:53:42;;;;;;;21.53;9.57;;;;;;;-2.43;72.18;98049.37;250364;1147;22949;-73
2021/01/12 07:58:44;;;;;;;17.03;8.30;;;;;;;-2.34;71.77;98055.11;250151;1147;22998;-73
2021/01/12 08:03:47;;;;;;;16.40;7.95;;;;;;;-2.31;71.70;98044.19;250122;1147;22963;-72
2021/01/12 08:08:57;;;;;;;17.10;7.50;;;;;;;-2.24;71.78;98046.70;249926;1148;25943;-72
2021/01/12 08:14:06;;;;;;;15.03;6.50;;;;;;;-2.23;70.85;98027.31;250258;1148;23022;-74
2021/01/12 08:19:08;;;;;;;14.43;6.78;;;;;;;-2.20;71.44;98032.11;249941;1148;24602;-73
2021/01/12 08:24:11;;;;;;;16.03;7.20;;;;;;;-2.13;70.13;98042.52;249962;1148;22907;-74
2021/01/12 08:29:15;;;;;;;18.85;8.30;;;;;;;-2.06;70.72;98043.23;250579;1148;23189;-76
2021/01/12 08:34:23;;;;;;;14.90;7.17;;;;;;;-1.98;70.73;98044.74;250545;1147;23014;-78
2021/01/12 08:39:25;;;;;;;14.07;7.67;;;;;;;-1.98;69.56;98055.24;250091;1148;26008;-77
2021/01/12 08:44:35;;;;;;;17.90;8.87;;;;;;;-1.97;69.27;98048.95;250084;1148;23043;-79
2021/01/12 08:49:38;;;;;;;18.43;8.87;;;;;;;-1.93;70.52;98048.30;250890;1148;26770;-79
2021/01/12 08:54:42;;;;;;;15.23;5.60;;;;;;;-1.80;67.62;98047.28;250600;1148;22977;-80
2021/01/12 08:59:44;;;;;;;13.45;6.75;;;;;;;-1.68;68.08;98043.88;251263;1147;23050;-79
2021/01/12 09:04:58;;;;;;;15.15;6.80;;;;;;;-1.59;67.40;98040.69;250645;1148;29184;-79
2021/01/12 09:10:00;;;;;;;15.77;7.50;;;;;;;-1.51;68.51;98039.57;250696;1148;22951;-79
2021/01/12 09:15:06;;;;;;;14.10;7.03;;;;;;;-1.43;68.09;98023.47;250438;1148;24735;-78
2021/01/12 09:20:09;;;;;;;15.47;6.93;;;;;;;-1.34;67.08;98013.41;250738;1148;22986;-78
2021/01/12 09:25:11;;;;;;;13.53;7.17;;;;;;;-1.30;68.85;98018.98;253631;1148;22976;-79
2021/01/12 09:30:23;;;;;;;16.30;7.80;;;;;;;-1.20;67.59;98008.71;250793;1148;26404;-78
2021/01/12 09:35:26;;;;;;;14.03;7.03;;;;;;;-1.12;67.40;98007.55;251389;1147;22944;-79
2021/01/12 09:40:29;;;;;;;13.37;5.93;;;;;;;-1.10;64.91;98013.38;250282;1148;23021;-79
2021/01/12 09:45:33;;;;;;;15.80;7.73;;;;;;;-1.03;67.28;97987.77;250169;1148;22932;-73
2021/01/12 09:50:35;;;;;;;17.07;8.13;;;;;;;-0.98;66.45;97987.88;250455;1147;23408;-78
2021/01/12 09:55:38;;;;;;;17.23;8.60;;;;;;;-1.00;65.51;97971.52;249890;1148;22951;-79
2021/01/12 10:00:42;;;;;;;14.03;6.87;;;;;;;-1.11;65.76;97953.95;250306;1148;23082;-79
2021/01/12 10:05:45;;;;;;;14.53;6.73;;;;;;;-1.17;66.38;97934.65;250534;1147;25992;-77
2021/01/12 10:10:49;;;;;;;16.47;7.13;;;;;;;-1.22;65.48;97939.80;254671;1148;26426;-77
2021/01/12 10:15:51;;;;;;;16.93;8.40;;;;;;;-1.26;66.97;97915.83;250501;1148;23002;-78
2021/01/12 10:20:54;;;;;;;21.60;9.17;;;;;;;-1.24;68.29;97916.38;250647;1148;23230;-76
2021/01/12 10:25:56;;;;;;;16.70;8.23;;;;;;;-1.25;67.20;97911.36;250798;1147;22948;-78
2021/01/12 10:30:59;;;;;;;17.07;7.93;;;;;;;-1.25;66.44;97906.89;250906;1148;23504;-78
2021/01/12 10:36:02;;;;;;;15.93;9.20;;;;;;;-1.23;67.14;97911.94;251074;1148;23097;-78
2021/01/12 10:41:04;;;;;;;16.47;8.60;;;;;;;-1.19;66.40;97899.91;251207;1147;23075;-78
2021/01/12 10:46:07;;;;;;;16.40;8.97;;;;;;;-1.14;66.98;97899.22;250313;1147;23954;-77
2021/01/12 10:51:09;;;;;;;20.35;8.40;;;;;;;-1.08;67.60;97885.13;250476;1147;23253;-76
2021/01/12 10:56:17;;;;;;;19.33;8.23;;;;;;;-1.06;66.60;97865.47;250341;1148;22919;-76
2021/01/12 11:01:21;;;;;;;14.73;7.67;;;;;;;-1.07;65.90;97863.08;250038;1148;23192;-76
2021/01/12 11:06:40;;;;;;;17.33;6.67;;;;;;;-1.08;66.08;97838.63;250400;1147;26000;-76
2021/01/12 11:11:42;;;;;;;15.10;6.80;;;;;;;-1.07;66.19;97829.69;250185;1148;26373;-77
2021/01/12 11:16:46;;;;;;;18.00;7.80;;;;;;;-1.05;66.58;97821.56;250259;1147;23026;-77
2021/01/12 11:21:50;;;;;;;16.73;7.80;;;;;;;-1.06;64.85;97807.64;250019;1148;22953;-76
2021/01/12 11:26:53;;;;;;;15.65;7.55;;;;;;;-1.07;65.50;97792.11;250352;1147;22960;-77
2021/01/12 11:31:57;;;;;;;15.30;7.13;;;;;;;-1.05;65.52;97800.54;250292;1148;24274;-77
2021/01/12 11:37:01;;;;;;;11.65;6.05;;;;;;;-1.05;63.53;97776.88;250223;1148;23042;-76
2021/01/12 11:42:07;;;;;;;15.03;7.43;;;;;;;-1.02;65.30;97765.91;250246;1148;23093;-76
2021/01/12 11:47:10;;;;;;;15.43;6.97;;;;;;;-0.96;63.55;97743.92;250711;1145;23014;-76
2021/01/12 11:52:12;;;;;;;14.60;7.13;;;;;;;-0.92;63.02;97757.39;250590;1148;28456;-76
2021/01/12 11:57:15;;;;;;;17.17;8.03;;;;;;;-0.92;62.75;97750.30;250702;1148;22942;-77
2021/01/12 12:02:17;;;;;;;17.50;8.50;;;;;;;-0.94;64.97;97749.72;250146;1148;25931;-76
2021/01/12 12:07:20;;;;;;;26.27;10.40;;;;;;;-0.93;65.02;97735.55;249948;1147;23192;-75
2021/01/12 12:12:23;;;;;;;17.73;8.77;;;;;;;-0.85;65.58;97731.73;249794;1148;23750;-76
2021/01/12 12:17:28;;;;;;;16.93;8.77;;;;;;;-0.79;66.90;97727.34;249892;1148;26376;-75
2021/01/12 12:22:30;;;;;;;19.43;8.03;;;;;;;-0.74;66.67;97725.59;249993;1148;25677;-78
2021/01/12 12:27:33;;;;;;;14.70;8.27;;;;;;;-0.74;66.10;97714.26;250020;1148;22977;-76
2021/01/12 12:32:35;;;;;;;29.97;13.57;;;;;;;-0.70;66.83;97702.22;249773;1148;22966;-75
2021/01/12 12:37:37;;;;;;;17.07;7.63;;;;;;;-0.61;66.79;97698.16;249781;1148;22964;-76
2021/01/12 12:42:39;;;;;;;17.27;7.67;;;;;;;-0.57;66.67;97669.54;250080;1148;26498;-78
2021/01/12 12:47:44;;;;;;;20.93;8.97;;;;;;;-0.47;67.05;97669.66;250062;1148;22973;-76
2021/01/12 12:52:52;;;;;;;18.83;8.30;;;;;;;-0.39;67.69;97673.72;249963;1148;23386;-79
2021/01/12 12:57:55;;;;;;;14.90;7.50;;;;;;;-0.29;66.63;97680.95;250285;1147;22968;-78
2021/01/12 13:02:57;;;;;;;21.50;8.85;;;;;;;-0.17;67.98;97686.87;250500;1147;26089;-79
2021/01/12 13:08:00;;;;;;;18.37;8.47;;;;;;;-0.03;67.97;97682.03;250632;1147;22973;-77
2021/01/12 13:13:03;;;;;;;18.20;8.85;;;;;;;0.07;66.97;97676.08;250255;1148;22970;-78
2021/01/12 13:18:11;;;;;;;15.60;8.35;;;;;;;0.21;66.92;97663.32;250197;1147;22945;-78
2021/01/12 13:23:13;;;;;;;12.43;5.80;;;;;;;0.26;65.96;97669.44;252192;1147;22907;-78
2021/01/12 13:28:16;;;;;;;16.80;8.13;;;;;;;0.27;67.04;97660.50;250548;1148;22942;-78
2021/01/12 13:33:19;;;;;;;17.47;7.87;;;;;;;0.28;66.54;97659.46;250451;1147;22977;-77
2021/01/12 13:38:21;;;;;;;16.67;8.77;;;;;;;0.24;66.35;97660.19;250050;1148;23050;-77
2021/01/12 13:43:23;;;;;;;15.47;7.00;;;;;;;0.19;65.96;97655.67;250192;1148;23485;-77
2021/01/12 13:48:26;;;;;;;12.03;6.93;;;;;;;0.08;65.89;97653.98;250189;1148;23424;-77
2021/01/12 13:53:28;;;;;;;13.50;7.10;;;;;;;-0.01;64.38;97637.83;250123;1148;26408;-77
2021/01/12 13:58:31;;;;;;;13.93;6.80;;;;;;;-0.10;65.69;97634.84;250196;1148;22982;-78
2021/01/12 14:03:33;;;;;;;14.93;6.97;;;;;;;-0.22;64.88;97634.97;250587;1148;23158;-78
2021/01/12 14:08:36;;;;;;;15.65;8.00;;;;;;;-0.35;66.31;97627.43;250665;1147;22948;-77
2021/01/12 14:13:38;;;;;;;20.93;8.63;;;;;;;-0.45;66.59;97629.95;250753;1148;22979;-80
2021/01/12 14:18:40;;;;;;;16.40;8.50;;;;;;;-0.55;67.56;97641.92;250448;1148;23031;-77
2021/01/12 14:23:47;;;;;;;16.23;7.70;;;;;;;-0.60;67.70;97622.66;250123;1148;27454;-78
2021/01/12 14:28:50;;;;;;;19.37;8.50;;;;;;;-0.68;68.48;97623.09;250186;1148;23062;-78
2021/01/12 14:33:53;;;;;;;15.70;9.05;;;;;;;-0.79;73.57;97619.53;250557;1147;22981;-77
2021/01/12 14:39:19;;;;;;;18.60;7.95;;;;;;;-0.89;72.78;97625.45;250526;1148;24478;-77
2021/01/12 14:44:25;;;;;;;22.60;10.13;;;;;;;-1.03;76.82;97630.24;250288;1148;23032;-77
2021/01/12 14:49:29;;;;;;;21.70;9.65;;;;;;;-1.17;80.07;97613.22;250656;1148;22952;-80
2021/01/12 14:54:31;;;;;;;21.45;10.70;;;;;;;-1.36;80.97;97605.56;252136;1147;23049;-79
2021/01/12 14:59:37;;;;;;;20.23;10.27;;;;;;;-1.50;81.46;97607.72;251919;1147;23652;-79
2021/01/12 15:04:39;;;;;;;25.97;10.60;;;;;;;-1.60;81.64;97625.94;252884;1147;23003;-80
2021/01/12 15:09:41;;;;;;;24.07;10.87;;;;;;;-1.63;80.29;97621.95;253942;1148;24848;-79
2021/01/12 15:14:44;;;;;;;22.93;12.07;;;;;;;-1.65;81.36;97602.22;250852;1148;23033;-78
2021/01/12 15:19:46;;;;;;;19.47;9.93;;;;;;;-1.70;81.85;97592.43;250493;1148;22962;-80
2021/01/12 15:24:50;;;;;;;20.67;10.40;;;;;;;-1.70;82.03;97591.64;251179;1147;23040;-80
2021/01/12 15:29:52;;;;;;;23.25;10.20;;;;;;;-1.70;81.80;97591.64;251462;1148;22959;-80
2021/01/12 15:34:54;;;;;;;22.70;11.13;;;;;;;-1.71;81.90;97577.70;251256;1148;22951;-80
2021/01/12 15:39:56;;;;;;;22.55;9.95;;;;;;;-1.67;81.55;97570.16;251335;1147;22952;-80
2021/01/12 15:44:59;;;;;;;23.73;10.80;;;;;;;-1.67;82.02;97560.44;250958;1148;23074;-79
2021/01/12 15:50:01;;;;;;;26.23;11.17;;;;;;;-1.69;84.79;97559.89;250891;1148;22942;-79
2021/01/12 15:55:04;;;;;;;22.63;10.70;;;;;;;-1.71;85.70;97561.95;250826;1148;22991;-80
2021/01/12 16:00:07;;;;;;;23.43;10.93;;;;;;;-1.71;84.50;97561.95;250709;1155;22918;-79
2021/01/12 16:05:11;;;;;;;26.80;11.50;;;;;;;-1.72;84.71;97561.16;250773;1148;22906;-79
2021/01/12 16:10:16;;;;;;;24.17;11.27;;;;;;;-1.70;84.70;97545.17;250705;1156;22970;-79
2021/01/12 16:15:21;;;;;;;27.00;11.47;;;;;;;-1.70;85.25;97542.54;250385;1148;23057;-79
2021/01/12 16:20:30;;;;;;;26.43;11.67;;;;;;;-1.70;86.18;97532.03;250467;1150;23100;-80
2021/01/12 16:25:46;;;;;;;23.20;11.33;;;;;;;-1.72;87.21;97526.24;250832;1147;26373;-80
2021/01/12 16:30:50;;;;;;;30.00;13.70;;;;;;;-1.75;88.82;97514.38;250787;1153;22965;-79
2021/01/12 16:35:55;;;;;;;27.83;14.27;;;;;;;-1.77;90.27;97507.77;250464;1147;22998;-80
2021/01/12 16:40:59;;;;;;;30.90;14.13;;;;;;;-1.82;91.91;97512.94;250476;1155;23046;-81
2021/01/12 16:46:06;;;;;;;33.10;14.60;;;;;;;-1.83;91.89;97516.59;250456;1148;22949;-80
2021/01/12 16:51:35;;;;;;;28.35;14.55;;;;;;;-1.77;91.55;97513.03;250483;1148;23132;-81
2021/01/12 16:56:49;;;;;;;28.33;11.23;;;;;;;-1.71;91.01;97517.31;250738;1147;23043;-80
2021/01/12 17:02:01;;;;;;;28.30;12.87;;;;;;;-1.65;90.60;97507.67;250631;1153;22967;-80
2021/01/12 17:07:04;;;;;;;20.23;9.53;;;;;;;-1.63;90.03;97506.41;250474;1151;24730;-81
2021/01/12 17:12:09;;;;;;;24.20;12.83;;;;;;;-1.62;90.22;97496.72;250480;1148;23036;-79
2021/01/12 17:17:19;;;;;;;24.50;12.03;;;;;;;-1.62;89.68;97491.46;250715;1151;22998;-81
2021/01/12 17:22:26;;;;;;;23.90;11.17;;;;;;;-1.60;90.45;97490.16;250889;1149;22959;-80
2021/01/12 17:27:55;;;;;;;24.37;12.87;;;;;;;-1.59;91.23;97496.23;250969;1151;22984;-80
2021/01/12 17:33:01;;;;;;;23.45;10.05;;;;;;;-1.58;91.39;97493.36;250787;1148;22941;-81
2021/01/12 17:38:05;;;;;;;25.33;12.63;;;;;;;-1.56;92.16;97491.27;250664;1147;25913;-80
2021/01/12 17:43:15;;;;;;;20.70;10.63;;;;;;;-1.53;92.06;97490.00;251202;1148;26708;-83
2021/01/12 17:48:19;;;;;;;21.83;10.37;;;;;;;-1.49;92.11;97487.70;250697;1148;22953;-79
2021/01/12 17:53:36;;;;;;;19.73;10.53;;;;;;;-1.46;90.98;97487.99;250831;1152;22942;-82
2021/01/12 17:58:54;;;;;;;19.40;9.70;;;;;;;-1.44;92.08;97490.38;250780;1150;22943;-81
2021/01/12 18:04:07;;;;;;;23.70;9.67;;;;;;;-1.46;91.38;97480.11;250921;1150;22964;-79
2021/01/12 18:09:13;;;;;;;17.67;9.33;;;;;;;-1.46;92.12;97479.33;250936;1148;25915;-79
2021/01/12 18:14:16;;;;;;;19.37;9.40;;;;;;;-1.46;91.71;97474.08;250779;1153;22962;-81
2021/01/12 18:19:20;;;;;;;20.67;8.87;;;;;;;-1.43;92.27;97469.14;250821;1150;22900;-79
2021/01/12 18:24:25;;;;;;;19.87;10.73;;;;;;;-1.39;92.66;97472.06;250838;1148;22967;-80
2021/01/12 18:29:37;;;;;;;18.07;9.30;;;;;;;-1.36;91.62;97466.32;250858;1155;22964;-80
2021/01/12 18:34:41;;;;;;;18.63;9.13;;;;;;;-1.33;91.35;97463.23;250758;1148;22987;-81
2021/01/12 18:39:45;;;;;;;20.85;9.45;;;;;;;-1.33;91.92;97468.48;250853;1149;23258;-81
2021/01/12 18:44:48;;;;;;;19.47;10.30;;;;;;;-1.31;92.60;97458.52;251034;1148;26373;-81
2021/01/12 18:49:56;;;;;;;23.00;9.57;;;;;;;-1.30;92.36;97460.11;252015;1151;22915;-83
2021/01/12 18:55:04;;;;;;;21.27;11.17;;;;;;;-1.30;92.33;97464.55;251223;1147;22917;-79
2021/01/12 19:00:07;;;;;;;21.57;10.10;;;;;;;-1.32;91.55;97459.55;251164;1151;22964;-82
2021/01/12 19:05:12;;;;;;;18.77;9.37;;;;;;;-1.31;91.50;97450.63;251183;1155;23415;-80
2021/01/12 19:10:15;;;;;;;19.40;9.00;;;;;;;-1.33;92.62;97446.66;251126;1148;22883;-82
2021/01/12 19:15:17;;;;;;;18.40;9.30;;;;;;;-1.30;93.06;97457.48;251845;1148;22982;-81
2021/01/12 19:20:20;;;;;;;19.53;9.13;;;;;;;-1.29;92.59;97453.80;251602;1150;22922;-79
2021/01/12 19:25:22;;;;;;;15.93;8.67;;;;;;;-1.32;93.08;97448.25;251406;1148;26388;-81
2021/01/12 19:30:25;;;;;;;17.27;9.13;;;;;;;-1.31;94.51;97460.36;251737;1150;22914;-80
2021/01/12 19:35:35;;;;;;;15.97;8.87;;;;;;;-1.30;93.84;97460.11;251644;1151;23027;-81
2021/01/12 19:40:40;;;;;;;17.40;9.35;;;;;;;-1.30;94.06;97465.36;250858;1150;24433;-80
2021/01/12 19:45:45;;;;;;;16.70;8.23;;;;;;;-1.30;94.64;97464.55;251292;1153;22976;-80
2021/01/12 19:50:47;;;;;;;19.37;10.13;;;;;;;-1.29;94.11;97459.05;251629;1149;22962;-83
2021/01/12 19:55:51;;;;;;;22.63;9.73;;;;;;;-1.24;93.77;97450.45;251254;1148;23100;-81
2021/01/12 20:00:53;;;;;;;19.13;9.40;;;;;;;-1.26;94.22;97455.95;251661;1150;22964;-79
2021/01/12 20:05:57;;;;;;;18.10;9.75;;;;;;;-1.24;94.44;97459.12;251759;1147;22939;-79
2021/01/12 20:11:00;;;;;;;20.40;9.80;;;;;;;-1.21;94.76;97460.47;251132;1149;22971;-81
2021/01/12 20:16:04;;;;;;;20.03;8.93;;;;;;;-1.20;94.77;97462.07;251162;1150;22958;-78
2021/01/12 20:21:17;;;;;;;22.90;10.65;;;;;;;-1.18;95.00;97454.73;251011;1148;23145;-81
2021/01/12 20:26:22;;;;;;;20.70;11.13;;;;;;;-1.15;94.73;97464.74;251401;1148;22980;-81
2021/01/12 20:31:30;;;;;;;18.17;9.37;;;;;;;-1.13;95.25;97470.56;251555;1151;23047;-81
2021/01/12 20:36:43;;;;;;;21.33;10.80;;;;;;;-1.09;93.89;97462.97;251538;1148;22966;-82
2021/01/12 20:41:48;;;;;;;23.47;11.17;;;;;;;-1.07;94.47;97466.16;251507;1151;22993;-82
2021/01/12 20:46:54;;;;;;;21.87;10.70;;;;;;;-1.11;94.60;97460.59;251833;1148;22964;-81
2021/01/12 20:51:57;;;;;;;21.87;10.50;;;;;;;-1.07;94.27;97455.66;251464;1151;22945;-82
2021/01/12 20:57:00;;;;;;;23.37;11.20;;;;;;;-1.06;94.19;97457.25;251674;1155;22973;-80
2021/01/12 21:02:02;;;;;;;24.67;11.33;;;;;;;-1.02;94.11;97465.42;251612;1148;22932;-80
2021/01/12 21:07:05;;;;;;;22.70;10.53;;;;;;;-1.01;93.81;97459.91;251557;1155;22981;-80
2021/01/12 21:12:08;;;;;;;23.30;11.33;;;;;;;-0.99;94.02;97460.48;252026;1150;23037;-83
2021/01/12 21:17:10;;;;;;;22.33;9.77;;;;;;;-0.93;93.56;97459.48;251799;1155;22981;-81
2021/01/12 21:22:15;;;;;;;22.43;10.87;;;;;;;-0.89;94.10;97457.17;252837;1149;22974;-81
2021/01/12 21:27:18;;;;;;;19.73;10.13;;;;;;;-0.87;93.49;97455.89;252444;1148;22932;-80
2021/01/12 21:32:21;;;;;;;19.35;9.85;;;;;;;-0.84;93.05;97464.31;252596;1148;22808;-80
2021/01/12 21:37:28;;;;;;;19.20;9.70;;;;;;;-0.84;93.26;97454.58;252719;1148;22928;-82
2021/01/12 21:42:30;;;;;;;18.67;9.60;;;;;;;-0.85;95.06;97466.16;251838;1151;22959;-82
2021/01/12 21:47:32;;;;;;;20.57;9.87;;;;;;;-0.87;95.08;97457.70;251772;1150;22946;-82
2021/01/12 21:52:35;;;;;;;19.50;10.83;;;;;;;-0.87;95.78;97466.41;252026;1148;22946;-82
2021/01/12 21:57:37;;;;;;;21.63;10.80;;;;;;;-0.87;95.35;97465.59;252077;1150;22961;-81
2021/01/12 22:02:40;;;;;;;21.57;11.40;;;;;;;-0.86;96.20;97473.23;251541;1148;22929;-81
2021/01/12 22:07:46;;;;;;;19.50;10.17;;;;;;;-0.81;96.54;97471.70;251457;1149;23068;-80
2021/01/12 22:12:51;;;;;;;16.67;9.13;;;;;;;-0.77;95.62;97473.62;250973;1148;23073;-82
2021/01/12 22:17:53;;;;;;;19.97;10.23;;;;;;;-0.73;95.99;97471.27;251801;1153;23378;-81
2021/01/12 22:22:57;;;;;;;19.15;8.20;;;;;;;-0.71;96.17;97477.09;251260;1150;22943;-80
2021/01/12 22:27:59;;;;;;;13.30;8.03;;;;;;;-0.69;95.57;97469.73;251172;1150;22927;-79
2021/01/12 22:33:01;;;;;;;13.15;8.55;;;;;;;-0.66;95.91;97482.39;250345;1148;22961;-82
2021/01/12 22:38:03;;;;;;;14.70;8.47;;;;;;;-0.65;96.30;97488.46;251189;1147;23200;-81
2021/01/12 22:43:05;;;;;;;16.43;8.97;;;;;;;-0.64;95.80;97490.84;251144;1147;23109;-81
2021/01/12 22:48:07;;;;;;;15.05;7.75;;;;;;;-0.61;96.74;97489.56;251157;1152;22986;-80
2021/01/12 22:53:10;;;;;;;14.67;8.10;;;;;;;-0.59;96.35;97488.28;250884;1147;22912;-79
2021/01/12 22:58:12;;;;;;;14.00;7.67;;;;;;;-0.55;96.23;97491.19;251043;1147;26411;-79
2021/01/12 23:03:14;;;;;;;13.23;7.60;;;;;;;-0.55;96.20;97502.50;250262;1147;23399;-79
2021/01/12 23:08:21;;;;;;;14.83;9.27;;;;;;;-0.49;96.43;97499.92;250314;1150;22987;-80
2021/01/12 23:13:27;;;;;;;13.13;6.93;;;;;;;-0.38;95.86;97498.98;250362;1148;22978;-80